地図

経路データ

SID SEASON NUMBER BASIN SUBBASIN NAME ISO_TIME NATURE LAT LON WMO_WIND WMO_PRES WMO_AGENCY TRACK_TYPE DIST2LAND LANDFALL IFLAG USA_AGENCY USA_ATCF_ID USA_LAT USA_LON USA_RECORD USA_STATUS USA_WIND USA_PRES USA_SSHS USA_R34_NE USA_R34_SE USA_R34_SW USA_R34_NW USA_R50_NE USA_R50_SE USA_R50_SW USA_R50_NW USA_R64_NE USA_R64_SE USA_R64_SW USA_R64_NW USA_POCI USA_ROCI USA_RMW USA_EYE TOKYO_LAT TOKYO_LON TOKYO_GRADE TOKYO_WIND TOKYO_PRES TOKYO_R50_DIR TOKYO_R50_LONG TOKYO_R50_SHORT TOKYO_R30_DIR TOKYO_R30_LONG TOKYO_R30_SHORT TOKYO_LAND CMA_LAT CMA_LON CMA_CAT CMA_WIND CMA_PRES HKO_LAT HKO_LON HKO_CAT HKO_WIND HKO_PRES NEWDELHI_LAT NEWDELHI_LON NEWDELHI_GRADE NEWDELHI_WIND NEWDELHI_PRES NEWDELHI_CI NEWDELHI_DP NEWDELHI_POCI REUNION_LAT REUNION_LON REUNION_TYPE REUNION_WIND REUNION_PRES REUNION_TNUM REUNION_CI REUNION_RMW REUNION_R34_NE REUNION_R34_SE REUNION_R34_SW REUNION_R34_NW REUNION_R50_NE REUNION_R50_SE REUNION_R50_SW REUNION_R50_NW REUNION_R64_NE REUNION_R64_SE REUNION_R64_SW REUNION_R64_NW BOM_LAT BOM_LON BOM_TYPE BOM_WIND BOM_PRES BOM_TNUM BOM_CI BOM_RMW BOM_R34_NE BOM_R34_SE BOM_R34_SW BOM_R34_NW BOM_R50_NE BOM_R50_SE BOM_R50_SW BOM_R50_NW BOM_R64_NE BOM_R64_SE BOM_R64_SW BOM_R64_NW BOM_ROCI BOM_POCI BOM_EYE BOM_POS_METHOD BOM_PRES_METHOD NADI_LAT NADI_LON NADI_CAT NADI_WIND NADI_PRES WELLINGTON_LAT WELLINGTON_LON WELLINGTON_WIND WELLINGTON_PRES DS824_LAT DS824_LON DS824_STAGE DS824_WIND DS824_PRES TD9636_LAT TD9636_LON TD9636_STAGE TD9636_WIND TD9636_PRES TD9635_LAT TD9635_LON TD9635_WIND TD9635_PRES TD9635_ROCI NEUMANN_LAT NEUMANN_LON NEUMANN_CLASS NEUMANN_WIND NEUMANN_PRES MLC_LAT MLC_LON MLC_CLASS MLC_WIND MLC_PRES USA_GUST BOM_GUST BOM_GUST_PER REUNION_GUST REUNION_GUST_PER USA_SEAHGT USA_SEARAD_NE USA_SEARAD_SE USA_SEARAD_SW USA_SEARAD_NW STORM_SPEED STORM_DIR
1902032S11065 1902 4 SI MM NOT_NAMED 1902-02-01 06:00:00 NR -10.5000 64.6000 reunion main 1304 1298 _____O________ -1 -10.5000 64.6000 99 9.90000 3 257
1902032S11065 1902 4 SI MM NOT_NAMED 1902-02-01 09:00:00 NR -10.5352 64.4419 main 1292 1276 _____P________ -1 -10.5352 64.4419 99 3 257
1902032S11065 1902 4 SI MM NOT_NAMED 1902-02-01 12:00:00 NR -10.5718 64.2811 main 1276 1265 _____P________ -1 -10.5718 64.2811 99 3 257
1902032S11065 1902 4 SI MM NOT_NAMED 1902-02-01 15:00:00 NR -10.6111 64.1146 main 1265 1244 _____P________ -1 -10.6111 64.1146 99 3 256
1902032S11065 1902 4 SI MM NOT_NAMED 1902-02-01 18:00:00 NR -10.6547 63.9397 main 1244 1238 _____P________ -1 -10.6547 63.9397 99 4 255
1902032S11065 1902 4 SI MM NOT_NAMED 1902-02-01 21:00:00 NR -10.7040 63.7537 main 1238 1217 _____P________ -1 -10.7040 63.7537 99 4 254
1902032S11065 1902 4 SI MM NOT_NAMED 1902-02-02 00:00:00 NR -10.7604 63.5536 main 1217 1201 _____P________ -1 -10.7604 63.5536 99 4 253
1902032S11065 1902 4 SI MM NOT_NAMED 1902-02-02 03:00:00 NR -10.8252 63.3366 main 1201 1180 _____P________ -1 -10.8252 63.3366 99 5 253
1902032S11065 1902 4 SI MM NOT_NAMED 1902-02-02 06:00:00 NR -10.9000 63.1000 reunion main 1180 1160 _____O________ -1 -10.9000 63.1000 99 9.90000 5 252
1902032S11065 1902 4 SI MM NOT_NAMED 1902-02-02 09:00:00 NR -10.9856 62.8421 main 1155 1135 _____P________ -1 -10.9856 62.8421 99 6 251
1902032S11065 1902 4 SI MM NOT_NAMED 1902-02-02 12:00:00 NR -11.0813 62.5664 main 1135 1111 _____P________ -1 -11.0813 62.5664 99 6 250
1902032S11065 1902 4 SI MM NOT_NAMED 1902-02-02 15:00:00 NR -11.1858 62.2775 main 1111 1087 _____P________ -1 -11.1858 62.2775 99 6 249
1902032S11065 1902 4 SI MM NOT_NAMED 1902-02-02 18:00:00 NR -11.2980 61.9801 main 1087 1063 _____P________ -1 -11.2980 61.9801 99 6 249
1902032S11065 1902 4 SI MM NOT_NAMED 1902-02-02 21:00:00 NR -11.4167 61.6790 main 1063 1040 _____P________ -1 -11.4167 61.6790 99 6 248
1902032S11065 1902 4 SI MM NOT_NAMED 1902-02-03 00:00:00 NR -11.5407 61.3788 main 1040 1007 _____P________ -1 -11.5407 61.3788 99 6 247
1902032S11065 1902 4 SI MM NOT_NAMED 1902-02-03 03:00:00 NR -11.6688 61.0842 main 1007 986 _____P________ -1 -11.6688 61.0842 99 6 245
1902032S11065 1902 4 SI MM NOT_NAMED 1902-02-03 06:00:00 NR -11.8000 60.8000 reunion main 986 968 _____O________ -1 -11.8000 60.8000 99 9.90000 6 246
1902032S11065 1902 4 SI MM NOT_NAMED 1902-02-03 09:00:00 NR -11.9031 60.5396 main 965 948 _____P________ -1 -11.9031 60.5396 99 5 248
1902032S11065 1902 4 SI MM NOT_NAMED 1902-02-03 12:00:00 NR -12.0075 60.2872 main 948 931 _____P________ -1 -12.0075 60.2872 99 5 246
1902032S11065 1902 4 SI MM NOT_NAMED 1902-02-03 15:00:00 NR -12.1173 60.0421 main 928 912 _____P________ -1 -12.1173 60.0421 99 5 244
1902032S11065 1902 4 SI MM NOT_NAMED 1902-02-03 18:00:00 NR -12.2371 59.8036 main 912 885 _____P________ -1 -12.2371 59.8036 99 5 241
1902032S11065 1902 4 SI MM NOT_NAMED 1902-02-03 21:00:00 NR -12.3709 59.5709 main 885 869 _____P________ -1 -12.3709 59.5709 99 5 237
1902032S11065 1902 4 SI MM NOT_NAMED 1902-02-04 00:00:00 NR -12.5232 59.3433 main 867 841 _____P________ -1 -12.5232 59.3433 99 6 233
1902032S11065 1902 4 SI MM NOT_NAMED 1902-02-04 03:00:00 NR -12.6981 59.1199 main 841 815 _____P________ -1 -12.6981 59.1199 99 6 229
1902032S11065 1902 4 SI MM NOT_NAMED 1902-02-04 06:00:00 NR -12.9000 58.9000 reunion main 815 790 _____O________ -1 -12.9000 58.9000 99 9.90000 6 227
1902032S11065 1902 4 SI MM NOT_NAMED 1902-02-04 09:00:00 NR -13.1321 58.6464 main 789 753 _____P________ -1 -13.1321 58.6464 99 7 225
1902032S11065 1902 4 SI MM NOT_NAMED 1902-02-04 12:00:00 NR -13.3906 58.3929 main 753 718 _____P________ -1 -13.3906 58.3929 99 7 222
1902032S11065 1902 4 SI MM NOT_NAMED 1902-02-04 15:00:00 NR -13.6722 58.1454 main 717 682 _____P________ -1 -13.6722 58.1454 99 8 219
1902032S11065 1902 4 SI MM NOT_NAMED 1902-02-04 18:00:00 NR -13.9731 57.9096 main 682 649 _____P________ -1 -13.9731 57.9096 99 8 216
1902032S11065 1902 4 SI MM NOT_NAMED 1902-02-04 21:00:00 NR -14.2898 57.6913 main 649 615 _____P________ -1 -14.2898 57.6913 99 8 212
1902032S11065 1902 4 SI MM NOT_NAMED 1902-02-05 00:00:00 NR -14.6189 57.4963 main 615 581 _____P________ -1 -14.6189 57.4963 99 8 208
1902032S11065 1902 4 SI MM NOT_NAMED 1902-02-05 03:00:00 NR -14.9568 57.3305 main 571 538 _____P________ -1 -14.9568 57.3305 99 7 203
1902032S11065 1902 4 SI MM NOT_NAMED 1902-02-05 06:00:00 NR -15.3000 57.2000 reunion main 538 505 _____O________ -1 -15.3000 57.2000 99 9.90000 7 198
1902032S11065 1902 4 SI MM NOT_NAMED 1902-02-05 09:00:00 NR -15.6291 57.1033 main 505 471 _____P________ -1 -15.6291 57.1033 99 7 193
1902032S11065 1902 4 SI MM NOT_NAMED 1902-02-05 12:00:00 NR -15.9666 57.0406 main 461 428 _____P________ -1 -15.9666 57.0406 99 7 187
1902032S11065 1902 4 SI MM NOT_NAMED 1902-02-05 15:00:00 NR -16.3112 57.0088 main 428 395 _____P________ -1 -16.3112 57.0088 99 7 184
1902032S11065 1902 4 SI MM NOT_NAMED 1902-02-05 18:00:00 NR -16.6618 57.0045 main 384 350 _____P________ -1 -16.6618 57.0045 99 7 0
1902032S11065 1902 4 SI MM NOT_NAMED 1902-02-05 21:00:00 NR -17.0172 57.0247 main 350 304 _____P________ -1 -17.0172 57.0247 99 7 175
1902032S11065 1902 4 SI MM NOT_NAMED 1902-02-06 00:00:00 NR -17.3762 57.0662 main 304 271 _____P________ -1 -17.3762 57.0662 99 7 173
1902032S11065 1902 4 SI MM NOT_NAMED 1902-02-06 03:00:00 NR -17.7375 57.1257 main 271 225 _____P________ -1 -17.7375 57.1257 99 7 170
1902032S11065 1902 4 SI MM NOT_NAMED 1902-02-06 06:00:00 NR -18.1000 57.2000 reunion main 225 180 _____O________ -1 -18.1000 57.2000 99 9.90000 8 169
1902032S11065 1902 4 SI MM NOT_NAMED 1902-02-06 09:00:00 NR -18.5019 57.2791 main 180 134 _____P________ -1 -18.5019 57.2791 99 8 168
1902032S11065 1902 4 SI MM NOT_NAMED 1902-02-06 12:00:00 NR -18.9113 57.3785 main 134 89 _____P________ -1 -18.9113 57.3785 99 8 166
1902032S11065 1902 4 SI MM NOT_NAMED 1902-02-06 15:00:00 NR -19.3189 57.4929 main 89 44 _____P________ -1 -19.3189 57.4929 99 8 164
1902032S11065 1902 4 SI MM NOT_NAMED 1902-02-06 18:00:00 NR -19.7152 57.6170 main 44 0 _____P________ -1 -19.7152 57.6170 99 8 163
1902032S11065 1902 4 SI MM NOT_NAMED 1902-02-06 21:00:00 NR -20.0909 57.7453 main 0 0 _____P________ -1 -20.0909 57.7453 99 8 162
1902032S11065 1902 4 SI MM NOT_NAMED 1902-02-07 00:00:00 NR -20.4365 57.8723 main 15 15 _____P________ -1 -20.4365 57.8723 99 7 161
1902032S11065 1902 4 SI MM NOT_NAMED 1902-02-07 03:00:00 NR -20.7426 57.9924 main 38 38 _____P________ -1 -20.7426 57.9924 99 6 159
1902032S11065 1902 4 SI MM NOT_NAMED 1902-02-07 06:00:00 NR -21.0000 58.1000 reunion main 69 69 _____O________ -1 -21.0000 58.1000 99 9.90000 5 158
1902032S11065 1902 4 SI MM NOT_NAMED 1902-02-07 09:00:00 NR -21.2020 58.1906 main 93 93 _____P________ -1 -21.2020 58.1906 99 4 156
1902032S11065 1902 4 SI MM NOT_NAMED 1902-02-07 12:00:00 NR -21.3532 58.2650 main 118 118 _____P________ -1 -21.3532 58.2650 99 3 154
1902032S11065 1902 4 SI MM NOT_NAMED 1902-02-07 15:00:00 NR -21.4608 58.3256 main 127 127 _____P________ -1 -21.4608 58.3256 99 2 151
1902032S11065 1902 4 SI MM NOT_NAMED 1902-02-07 18:00:00 NR -21.5321 58.3745 main 133 133 _____P________ -1 -21.5321 58.3745 99 1 146
1902032S11065 1902 4 SI MM NOT_NAMED 1902-02-07 21:00:00 NR -21.5745 58.4141 main 142 142 _____P________ -1 -21.5745 58.4141 99 1 130
1902032S11065 1902 4 SI MM NOT_NAMED 1902-02-08 00:00:00 NR -21.5951 58.4466 main 142 142 _____P________ -1 -21.5951 58.4466 99 1 118
1902032S11065 1902 4 SI MM NOT_NAMED 1902-02-08 03:00:00 NR -21.6012 58.4745 main 148 148 _____P________ -1 -21.6012 58.4745 99 0 95
1902032S11065 1902 4 SI MM NOT_NAMED 1902-02-08 06:00:00 NR -21.6000 58.5000 reunion main 148 _____O________ -1 -21.6000 58.5000 99 9.90000 0 0

IBTrACS Databaseについて

本データベースは、米国NOAAが公開する1842年以降の世界の熱帯低気圧のベストトラックデータアーカイブInternational Best Track Archive for Climate Stewardship (IBTrACS)を、ウェブで閲覧しやすい形式に変換したものです。

最終更新日:2021-11-26